Ranchita (211) Station Data

Red Flag Warning: No
Fire Weather Zone: 258
SDGE Region: Ramona
Lat/Lon: 33.21/-116.508

Observations

Time Wind Speed/Gust Temp(F) RH Fuel Moist Fuel Temp(F) Dewpt(F) Tmax(F) Tmin(F) Accum Precip 10-min Precip SL Press(mb)
2/27 11:40pm 261 13 G 19 41° 96% - - 40° 46.9° 37.1° - - 1013.0
2/27 11:20pm 272 16 G 25 41° 96% - - 40° 46.9° 37.1° - - 1013.0
2/27 11:10pm 276 16 G 26 41° 93% - - 40° 46.9° 37.1° - - 1013.0
2/27 11:00pm 240 23 G 35 43° 87% - - 39° 46.9° 37.1° - - 1013.0
2/27 10:50pm 237 22 G 34 43° 86% - - 39° 46.9° 37.1° - - 1012.0
2/27 10:40pm 244 24 G 34 43° 87% - - 40° 46.9° 37.1° - - 1012.0
2/27 10:30pm 246 19 G 32 43° 89% - - 40° 46.9° 37.1° - - 1012.0
2/27 10:20pm 253 18 G 29 44° 89% - - 40° 46.9° 37.1° - - 1012.0
2/27 10:10pm 239 21 G 32 44° 86% - - 40° 46.9° 37.1° - - 1012.0
2/27 10:00pm 237 15 G 24 43° 88% - - 40° 46.9° 37.1° - - 1012.0
2/27 9:50pm 245 14 G 21 43° 88% - - 40° 46.9° 37.1° - - 1012.0
2/27 9:40pm 250 13 G 20 43° 89% - - 40° 46.9° 37.1° - - 1012.0
2/27 9:30pm 244 13 G 18 43° 91% - - 41° 46.9° 37.1° - - 1012.0
2/27 9:20pm 250 11 G 17 43° 91% - - 41° 46.9° 37.1° - - 1013.0
2/27 9:10pm 245 11 G 15 43° 90% - - 40° 46.9° 37.1° - - 1013.0
2/27 9:00pm 249 12 G 21 43° 93% - - 41° 46.9° 37.1° - - 1013.0
2/27 8:50pm 274 9 G 13 42° 95% - - 41° 46.9° 37.1° - - 1013.0
2/27 8:40pm 276 8 G 11 43° 93% - - 41° 46.9° 37.1° - - 1013.0
2/27 8:30pm 246 7 G 10 43° 92% - - 41° 46.9° 37.1° - - 1012.0
2/27 8:20pm 240 7 G 10 43° 92% - - 41° 46.9° 37.1° - - 1012.0
2/27 8:10pm 236 8 G 12 43° 92% - - 41° 46.9° 37.1° - - 1012.0
2/27 8:00pm 220 8 G 12 43° 93% - - 41° 46.9° 37.1° - - 1013.0
2/27 7:50pm 238 5 G 7 43° 92% - - 41° 46.9° 37.1° - - 1013.0
2/27 7:40pm 247 9 G 17 43° 90% - - 40° 46.9° 37.1° - - 1013.0
2/27 7:30pm 254 10 G 16 43° 91% - - 40° 46.9° 37.1° - - 1013.0
2/27 7:20pm 244 12 G 16 43° 91% - - 41° 46.9° 37.1° - - 1013.0
2/27 7:10pm 239 9 G 14 43° 91% - - 41° 46.9° 37.1° - - 1013.0
2/27 7:00pm 247 9 G 12 43° 91% - - 40° 46.9° 37.1° - - 1013.0
2/27 6:50pm 255 11 G 18 43° 89% - - 40° 46.9° 37.1° - - 1012.0
2/27 6:40pm 246 10 G 17 43° 89% - - 40° 46.9° 37.1° - - 1013.0
2/27 6:30pm 230 10 G 17 43° 90% - - 40° 46.9° 37.1° - - 1013.0
2/27 6:20pm 227 12 G 19 43° 91% - - 41° 46.9° 37.1° - - 1013.0
2/27 6:10pm 213 10 G 15 43° 94% - - 41° 46.9° 37.1° - - 1013.0
2/27 6:00pm 216 11 G 18 43° 94% - - 41° 46.9° 37.1° - - 1012.0
2/27 5:50pm 225 11 G 17 43° 91% - - 41° 46.9° 37.1° - - 1012.0
2/27 5:40pm 226 11 G 16 44° 91% - - 41° 46.9° 37.1° - - 1012.0
2/27 5:30pm 222 10 G 19 44° 90% - - 41° 46.9° 37.1° - - 1012.0
2/27 5:20pm 228 8 G 19 43° 91% - - 41° 46.9° 37.1° - - 1012.0
2/27 5:10pm 240 7 G 16 43° 91% - - 41° 46.9° 37.1° - - 1012.0
2/27 5:00pm 231 7 G 13 43° 90% - - 40° 46.9° 37.1° - - 1013.0
2/27 4:50pm 243 9 G 13 43° 89% - - 40° 46.9° 37.1° - - 1013.0
2/27 4:40pm 232 14 G 20 43° 87% - - 40° 46.9° 37.1° - - 1012.0
2/27 4:30pm 231 11 G 21 43° 89% - - 40° 46.9° 37.1° - - 1013.0
2/27 4:20pm 229 10 G 19 43° 88% - - 40° 46.9° 37.1° - - 1012.0
2/27 4:10pm 227 9 G 15 43° 89% - - 40° 46.9° 37.1° - - 1013.0
2/27 4:00pm 232 10 G 14 43° 89% - - 40° 46.9° 37.1° - - 1013.0
2/27 3:50pm 223 13 G 23 44° 88% - - 40° 46.9° 37.1° - - 1012.0
2/27 3:40pm 228 14 G 29 44° 88% - - 41° 46.9° 37.1° - - 1012.0
2/27 3:30pm 221 14 G 20 44° 88% - - 40° 46.9° 37.1° - - 1012.0
2/27 3:20pm 229 15 G 22 44° 86% - - 40° 46.9° 37.1° - - 1012.0
2/27 3:10pm 228 15 G 26 44° 87% - - 41° 46.9° 37.1° - - 1012.0
2/27 3:00pm 228 17 G 29 45° 86% - - 41° 46.9° 37.1° - - 1012.0
2/27 2:50pm 228 16 G 26 45° 88% - - 41° 46.9° 37.1° - - 1012.0
2/27 2:40pm 228 15 G 34 45° 88% - - 42° 46.9° 37.1° - - 1012.0
2/27 2:30pm 223 11 G 28 45° 89% - - 42° 46.9° 37.1° - - 1012.0
2/27 2:20pm 226 13 G 23 45° 87% - - 41° 46.9° 37.1° - - 1012.0
2/27 2:10pm 225 15 G 24 45° 87% - - 42° 46.9° 37.1° - - 1012.0
2/27 2:00pm 224 16 G 25 46° 89% - - 42° 46.9° 37.1° - - 1012.0
2/27 1:50pm 225 17 G 34 46° 89% - - 43° 46.9° 37.1° - - 1012.0
2/27 1:40pm 229 17 G 28 46° 87% - - 42° 46.9° 37.1° - - 1012.0
2/27 1:30pm 242 16 G 24 45° 89% - - 42° 46.9° 37.1° - - 1012.0
2/27 1:20pm 246 13 G 22 45° 89% - - 42° 46.9° 37.1° - - 1013.0
2/27 1:10pm 254 13 G 19 45° 91% - - 43° 46.9° 37.1° - - 1013.0
2/27 1:00pm 243 10 G 16 45° 91% - - 43° 46.9° 37.1° - - 1013.0
2/27 12:50pm 231 11 G 19 45° 91% - - 43° 46.9° 37.1° - - 1013.0
2/27 12:40pm 220 9 G 24 45° 91% - - 43° 46.9° 37.1° - - 1013.0
2/27 12:30pm 216 9 G 16 45° 90% - - 42° 46.9° 37.1° - - 1014.0
2/27 12:20pm 221 11 G 19 45° 89% - - 42° 46.9° 37.1° - - 1014.0
2/27 12:10pm 224 10 G 18 45° 89% - - 42° 46.9° 37.1° - - 1014.0
2/27 12:00pm 222 9 G 13 45° 90% - - 42° 46.9° 37.1° - - 1014.0
2/27 11:50am 230 11 G 27 45° 88% - - 42° 46.9° 37.1° - - 1014.0
2/27 11:40am 235 13 G 21 45° 87% - - 41° 46.9° 37.1° - - 1014.0
2/27 11:30am 233 15 G 23 45° 89% - - 42° 46.9° 37.1° - - 1015.0
2/27 11:20am 224 15 G 23 45° 88% - - 42° 46.9° 37.1° - - 1015.0
2/27 11:10am 227 16 G 29 46° 88% - - 42° 46.9° 37.1° - - 1014.0
2/27 11:00am 238 19 G 29 46° 88% - - 42° 46.9° 37.1° - - 1014.0
2/27 10:50am 234 15 G 21 46° 89% - - 43° 46.9° 37.1° - - 1014.0
2/27 10:40am 244 16 G 21 46° 90% - - 43° 46.9° 37.1° - - 1014.0
2/27 10:30am 242 16 G 24 46° 89% - - 43° 46.9° 37.1° - - 1014.0
2/27 10:20am 243 16 G 26 46° 91% - - 43° 46.9° 37.1° - - 1014.0
2/27 10:10am 249 11 G 15 45° 92% - - 43° 46.9° 37.1° - - 1014.0
2/27 10:00am 248 13 G 22 46° 90% - - 43° 46.9° 37.1° - - 1014.0
2/27 9:50am 234 11 G 18 46° 89% - - 43° 46.9° 37.1° - - 1014.0
2/27 9:40am 215 9 G 18 46° 92% - - 43° 46.9° 37.1° - - 1014.0
2/27 9:30am 221 10 G 15 46° 90% - - 43° 46.9° 37.1° - - 1014.0
2/27 9:20am 230 10 G 15 45° 91% - - 43° 46.9° 37.1° - - 1014.0
2/27 9:10am 224 12 G 18 46° 91% - - 43° 46.9° 37.1° - - 1014.0
2/27 9:00am 237 13 G 21 45° 92% - - 43° 46.9° 37.1° - - 1014.0
2/27 8:50am 232 13 G 18 46° 91% - - 43° 46.9° 37.1° - - 1014.0
2/27 8:40am 242 12 G 17 46° 92% - - 43° 46.9° 37.1° - - 1014.0
2/27 8:30am 237 13 G 20 46° 92% - - 43° 46.9° 37.1° - - 1014.0
2/27 8:20am 238 14 G 20 46° 91% - - 43° 46.9° 37.1° - - 1014.0
2/27 8:10am 248 14 G 21 46° 89% - - 43° 46.9° 37.1° - - 1013.0
2/27 8:00am 244 15 G 21 46° 91% - - 44° 46.9° 37.1° - - 1013.0
2/27 7:50am 241 14 G 22 47° 91% - - 44° 46.9° 37.1° - - 1013.0
2/27 7:40am 241 15 G 22 46° 92% - - 44° 46.7° 37.1° - - 1013.0
2/27 7:30am 241 16 G 22 46° 92% - - 44° 46.2° 37.1° - - 1013.0
2/27 7:20am 235 15 G 23 46° 92% - - 44° 46.2° 37.1° - - 1013.0
2/27 7:10am 241 15 G 23 46° 93% - - 44° 46.2° 37.1° - - 1013.0
2/27 7:00am 245 13 G 19 45° 95% - - 44° 46.2° 37.1° - - 1014.0
2/27 6:50am 260 9 G 18 44° 96% - - 43° 46.2° 37.1° - - 1014.0
2/27 6:40am 282 8 G 13 44° 96% - - 43° 46.2° 37.1° - - 1014.0
2/27 6:30am 272 8 G 13 44° 95% - - 43° 46.2° 37.1° - - 1014.0
2/27 6:20am 254 10 G 18 45° 94% - - 43° 46.2° 37.1° - - 1014.0
2/27 6:10am 258 10 G 17 45° 93% - - 43° 46.2° 37.1° - - 1014.0
2/27 6:00am 239 13 G 19 45° 91% - - 43° 46.2° 37.1° - - 1013.0
2/27 5:50am 233 13 G 24 46° 91% - - 43° 46.2° 37.1° - - 1013.0
2/27 5:40am 228 13 G 21 46° 90% - - 43° 46.2° 37.1° - - 1013.0
2/27 5:30am 219 12 G 24 46° 89% - - 43° 46.2° 37.1° - - 1013.0
2/27 5:20am 229 15 G 25 46° 89% - - 43° 46.2° 37.1° - - 1013.0
2/27 5:10am 240 14 G 20 46° 90% - - 43° 45.9° 37.1° - - 1013.0
2/27 5:00am 234 15 G 25 46° 90% - - 43° 45.9° 37.1° - - 1013.0
2/27 4:50am 239 13 G 24 45° 94% - - 43° 45.3° 37.1° - - 1013.0
2/27 4:40am 258 10 G 18 43° 96% - - 42° 44.2° 37.1° - - 1014.0
2/27 4:30am 268 11 G 17 43° 97% - - 42° 43.4° 37.1° - - 1014.0
2/27 4:20am 264 11 G 16 42° 97% - - 42° 42.9° 37.1° - - 1014.0
2/27 4:10am 279 14 G 20 43° 97% - - 42° 42.9° 37.1° - - 1014.0
2/27 4:00am 282 13 G 18 42° 97% - - 41° 42.5° 37.1° - - 1014.0
2/27 3:50am 280 16 G 21 41° 98% - - 41° 41.8° 37.1° - - 1014.0
2/27 3:40am 272 16 G 21 41° 98% - - 40° 41.1° 37.1° - - 1014.0
2/27 3:30am 266 16 G 21 40° 98% - - 39° 40.4° 37.1° - - 1015.0
2/27 3:20am 263 15 G 20 40° 98% - - 39° 40.1° 37.1° - - 1015.0
2/27 3:10am 266 16 G 21 40° 98% - - 39° 40.1° 37.1° - - 1015.0
2/27 3:00am 267 17 G 24 40° 97% - - 39° 40° 37.1° - - 1014.0
2/27 2:50am 278 20 G 27 40° 97% - - 39° 40° 37.1° - - 1014.0
2/27 2:40am 276 19 G 26 39° 97% - - 39° 39.8° 37.1° - - 1015.0
2/27 2:30am 275 20 G 28 39° 97% - - 38° 39.8° 37.1° - - 1015.0
2/27 2:20am 271 20 G 27 39° 97% - - 38° 39.8° 37.1° - - 1015.0
2/27 2:10am 277 22 G 31 39° 97% - - 39° 39.8° 37.1° - - 1015.0
2/27 2:00am 277 22 G 29 39° 97% - - 38° 39.8° 37.1° - - 1015.0
2/27 1:50am 274 21 G 28 39° 97% - - 38° 39.8° 37.1° - - 1015.0
2/27 1:40am 275 22 G 32 39° 97% - - 38° 39.8° 37.1° - - 1015.0
2/27 1:30am 283 24 G 36 39° 96% - - 38° 39.6° 37.1° - - 1015.0
2/27 1:20am 279 24 G 34 39° 97% - - 38° 39.4° 37.1° - - 1015.0
2/27 1:10am 285 23 G 33 39° 97% - - 38° 39.1° 37.1° - - 1016.0
2/27 1:00am 284 24 G 35 38° 97% - - 37° 38.5° 37.1° - - 1016.0
2/27 12:50am 284 27 G 39 38° 96% - - 37° 38.4° 37.1° - - 1016.0
2/27 12:40am 286 27 G 37 38° 96% - - 37° 38.1° 37.1° - - 1016.0
2/27 12:30am 287 26 G 37 37° 96% - - 36° 37.8° 37.1° - - 1016.0
2/27 12:20am 284 26 G 39 38° 95% - - 36° 37.8° 37.1° - - 1016.0
2/27 12:10am 282 27 G 37 37° 93% - - 36° 37.8° 37.1° - - 1016.0
2/27 12:00am 280 26 G 36 37° 92% - - 35° 41.4° 32.6° - - 1016.0
2/26 11:50pm 278 28 G 37 36° 91% - - 34° 41.4° 32.6° - - 1016.0
2/26 11:40pm 277 28 G 39 36° 88% - - 33° 41.4° 32.6° - - 1017.0
2/26 11:30pm 276 26 G 39 35° 89% - - 32° 41.4° 32.6° - - 1017.0
2/26 11:20pm 282 24 G 35 35° 90% - - 32° 41.4° 32.6° - - 1017.0
2/26 11:10pm 286 23 G 31 35° 91% - - 32° 41.4° 32.6° - - 1017.0
2/26 11:00pm 286 23 G 34 35° 90% - - 32° 41.4° 32.6° - - 1017.0
2/26 10:50pm 286 22 G 33 35° 89% - - 32° 41.4° 32.6° - - 1017.0
2/26 10:40pm 286 22 G 31 34° 89% - - 31° 41.4° 32.6° - - 1017.0
2/26 10:30pm 287 22 G 35 34° 90% - - 32° 41.4° 32.6° - - 1017.0
2/26 10:20pm 284 22 G 32 34° 92% - - 32° 41.4° 32.6° - - 1017.0
2/26 10:10pm 283 21 G 29 34° 93% - - 33° 41.4° 32.6° - - 1017.0
2/26 10:00pm 280 23 G 33 35° 94% - - 33° 41.4° 32.6° - - 1017.0
2/26 9:50pm 280 24 G 34 35° 95% - - 33° 41.4° 32.6° - - 1017.0
2/26 9:40pm 280 24 G 34 35° 94% - - 33° 41.4° 32.6° - - 1017.0
2/26 9:30pm 279 24 G 33 35° 94% - - 34° 41.4° 32.6° - - 1017.0
2/26 9:20pm 278 23 G 31 35° 94% - - 34° 41.4° 32.6° - - 1017.0
2/26 9:10pm 275 23 G 33 35° 93% - - 34° 41.4° 32.6° - - 1017.0
2/26 9:00pm 277 24 G 33 36° 94% - - 34° 41.4° 32.6° - - 1017.0
2/26 8:50pm 279 25 G 33 36° 96% - - 35° 41.4° 32.6° - - 1017.0
2/26 8:40pm 275 24 G 33 36° 96% - - 35° 41.4° 32.6° - - 1017.0
2/26 8:30pm 277 23 G 31 36° 96% - - 35° 41.4° 32.6° - - 1017.0
2/26 8:20pm 277 21 G 31 36° 95% - - 35° 41.4° 32.6° - - 1017.0
2/26 8:10pm 281 23 G 33 37° 93% - - 35° 41.4° 32.6° - - 1017.0
2/26 8:00pm 282 24 G 36 37° 92% - - 35° 41.4° 32.6° - - 1017.0
2/26 7:50pm 277 25 G 35 37° 90% - - 34° 41.4° 32.6° - - 1016.0
2/26 7:40pm 277 24 G 34 37° 89% - - 34° 41.4° 32.6° - - 1016.0
2/26 7:30pm 279 23 G 32 37° 87% - - 33° 41.4° 32.6° - - 1016.0
2/26 7:20pm 278 23 G 37 36° 86% - - 33° 41.4° 32.6° - - 1016.0
2/26 7:10pm 276 23 G 33 37° 86% - - 33° 41.4° 32.6° - - 1016.0
2/26 7:00pm 280 23 G 32 37° 86% - - 33° 41.4° 32.6° - - 1016.0
2/26 6:50pm 276 22 G 34 37° 88% - - 33° 41.4° 32.6° - - 1016.0
2/26 6:40pm 265 22 G 32 37° 85% - - 33° 41.4° 32.6° - - 1017.0
2/26 6:30pm 263 21 G 30 37° 84% - - 33° 41.4° 32.6° - - 1016.0
2/26 6:20pm 268 22 G 33 37° 85% - - 33° 41.4° 32.6° - - 1016.0
2/26 6:10pm 271 22 G 31 38° 85% - - 33° 41.4° 32.6° - - 1016.0
2/26 6:00pm 264 21 G 34 38° 88% - - 35° 41.4° 32.6° - - 1016.0
2/26 5:50pm 268 22 G 28 38° 85% - - 34° 41.4° 32.6° - - 1016.0
2/26 5:40pm 264 23 G 31 38° 82% - - 33° 41.4° 32.6° - - 1016.0
2/26 5:30pm 264 20 G 28 39° 86% - - 35° 41.4° 32.6° - - 1016.0
2/26 5:20pm 263 20 G 32 39° 85% - - 35° 41.4° 32.6° - - 1016.0
2/26 5:10pm 262 21 G 29 39° 84% - - 35° 41.4° 32.6° - - 1016.0
2/26 5:00pm 264 22 G 28 39° 81% - - 34° 41.4° 32.6° - - 1016.0